createdAt,value
2018-09-09T00:00:52.393Z,95911.88
2018-09-09T00:03:20.821Z,95910.16
2018-09-09T00:05:49.208Z,95911.31
2018-09-09T00:08:17.640Z,95912.45
2018-09-09T00:10:46.044Z,95908.83
2018-09-09T00:13:14.465Z,95914.91
2018-09-09T00:15:42.847Z,95917.00
2018-09-09T00:18:11.269Z,95914.80
2018-09-09T00:20:39.694Z,95919.70
2018-09-09T00:23:08.194Z,95914.61
2018-09-09T00:25:36.865Z,95920.55
2018-09-09T00:28:05.790Z,95923.55
2018-09-09T00:30:34.445Z,95923.73
2018-09-09T00:33:02.920Z,95926.05
2018-09-09T00:35:31.448Z,95917.33
2018-09-09T00:37:59.865Z,95926.55
2018-09-09T00:40:28.249Z,95912.34
2018-09-09T00:42:56.660Z,95915.25
2018-09-09T00:45:25.093Z,95917.78
2018-09-09T00:47:53.522Z,95908.98
2018-09-09T00:50:27.009Z,95924.41
2018-09-09T00:53:00.847Z,95915.70
2018-09-09T00:55:29.292Z,95921.97
2018-09-09T00:57:57.718Z,95914.58
2018-09-09T01:00:32.021Z,95919.19
2018-09-09T01:03:00.484Z,95920.15
2018-09-09T01:05:28.940Z,95916.40
2018-09-09T01:07:57.365Z,95919.05
2018-09-09T01:10:25.781Z,95924.50
2018-09-09T01:12:54.201Z,95925.68
2018-09-09T01:15:22.582Z,95923.88
2018-09-09T01:17:50.984Z,95923.70
2018-09-09T01:20:19.427Z,95931.16
2018-09-09T01:22:47.811Z,95928.70
2018-09-09T01:25:16.440Z,95930.10
2018-09-09T01:27:44.866Z,95927.12
2018-09-09T01:30:13.297Z,95929.36
2018-09-09T01:32:41.693Z,95924.08
2018-09-09T01:35:10.109Z,95923.22
2018-09-09T01:37:38.480Z,95922.83
2018-09-09T01:40:06.918Z,95919.50
2018-09-09T01:42:35.357Z,95916.66
2018-09-09T01:45:03.826Z,95924.78
2018-09-09T01:47:32.202Z,95931.95
2018-09-09T01:50:00.613Z,95926.13
2018-09-09T01:52:28.996Z,95926.33
2018-09-09T01:54:57.484Z,95923.02
2018-09-09T01:57:25.853Z,95920.59
2018-09-09T01:59:54.245Z,95921.88
2018-09-09T02:02:22.740Z,95922.32
2018-09-09T02:04:51.121Z,95927.16
2018-09-09T02:07:19.569Z,95921.05
2018-09-09T02:09:47.949Z,95919.81
2018-09-09T02:12:16.357Z,95920.48
2018-09-09T02:14:44.761Z,95917.63
2018-09-09T02:17:13.184Z,95920.36
2018-09-09T02:19:41.553Z,95922.23
2018-09-09T02:22:09.984Z,95921.30
2018-09-09T02:24:38.360Z,95921.37
2018-09-09T02:27:06.779Z,95922.98
2018-09-09T02:29:35.181Z,95928.91
2018-09-09T02:32:03.673Z,95929.58
2018-09-09T02:34:32.057Z,95923.91
2018-09-09T02:37:00.470Z,95929.31
2018-09-09T02:39:28.912Z,95933.53
2018-09-09T02:41:57.370Z,95922.11
2018-09-09T02:44:25.835Z,95925.70
2018-09-09T02:46:54.252Z,95931.80
2018-09-09T02:49:22.617Z,95923.39
2018-09-09T02:51:51.116Z,95933.11
2018-09-09T02:54:19.515Z,95934.34
2018-09-09T02:56:47.914Z,95930.13
2018-09-09T02:59:16.336Z,95920.55
2018-09-09T03:01:44.749Z,95928.13
2018-09-09T03:04:13.179Z,95927.62
2018-09-09T03:06:41.568Z,95935.17
2018-09-09T03:09:10.002Z,95940.22
2018-09-09T03:11:44.718Z,95936.72
2018-09-09T03:14:13.125Z,95936.48
2018-09-09T03:16:41.529Z,95934.78
2018-09-09T03:19:10.020Z,95932.91
2018-09-09T03:21:38.405Z,95927.77
2018-09-09T03:24:06.850Z,95930.70
2018-09-09T03:26:35.256Z,95928.04
2018-09-09T03:29:03.689Z,95925.47
2018-09-09T03:31:32.125Z,95938.42
2018-09-09T03:34:00.545Z,95944.09
2018-09-09T03:36:28.943Z,95937.06
2018-09-09T03:38:57.393Z,95938.09
2018-09-09T03:41:25.761Z,95934.39
2018-09-09T03:43:54.425Z,95934.77
2018-09-09T03:46:22.800Z,95930.92
2018-09-09T03:48:51.188Z,95933.63
2018-09-09T03:51:19.611Z,95939.22
2018-09-09T03:53:47.997Z,95938.50
2018-09-09T03:56:16.433Z,95933.35
2018-09-09T03:58:44.996Z,95933.55
2018-09-09T04:01:13.437Z,95946.14
2018-09-09T04:03:41.828Z,95941.94
2018-09-09T04:06:10.255Z,95944.83
2018-09-09T04:08:38.654Z,95945.54
2018-09-09T04:11:08.982Z,95943.80
2018-09-09T04:13:38.416Z,95936.52
2018-09-09T04:16:07.354Z,95942.02
2018-09-09T04:18:35.762Z,95944.43
2018-09-09T04:21:04.207Z,95941.59
2018-09-09T04:23:32.613Z,95942.80
2018-09-09T04:26:01.037Z,95945.31
2018-09-09T04:28:29.429Z,95950.64
2018-09-09T04:30:57.927Z,95955.80
2018-09-09T04:33:26.309Z,95954.06
2018-09-09T04:35:54.778Z,95955.17
2018-09-09T04:38:23.273Z,95957.73
2018-09-09T04:40:51.660Z,95955.08
2018-09-09T04:43:20.085Z,95958.95
2018-09-09T04:45:48.501Z,95957.44
2018-09-09T04:48:16.949Z,95962.45
2018-09-09T04:50:45.336Z,95965.97
2018-09-09T04:53:13.797Z,95966.86
2018-09-09T04:55:42.191Z,95967.96
2018-09-09T04:58:10.617Z,95971.83
2018-09-09T05:00:39.018Z,95981.77
2018-09-09T05:03:07.509Z,95985.70
2018-09-09T05:05:35.915Z,95986.80
2018-09-09T05:08:04.342Z,95987.96
2018-09-09T05:10:32.734Z,95987.07
2018-09-09T05:13:01.179Z,95996.30
2018-09-09T05:15:29.581Z,95994.27
2018-09-09T05:17:58.034Z,95996.59
2018-09-09T05:20:26.413Z,95999.13
2018-09-09T05:22:54.833Z,95995.61
2018-09-09T05:25:23.246Z,95997.48
2018-09-09T05:27:51.709Z,96000.81
2018-09-09T05:30:20.106Z,95997.86
2018-09-09T05:32:48.946Z,95996.55
2018-09-09T05:35:17.363Z,95998.91
2018-09-09T05:37:45.767Z,95999.66
2018-09-09T05:40:14.182Z,95999.18
2018-09-09T05:42:42.569Z,96007.03
2018-09-09T05:45:11.005Z,96005.16
2018-09-09T05:47:39.409Z,96006.41
2018-09-09T05:50:07.893Z,96005.36
2018-09-09T05:52:36.291Z,96010.91
2018-09-09T05:55:04.770Z,96006.77
2018-09-09T05:57:33.158Z,96006.20
2018-09-09T06:00:01.872Z,96008.83
2018-09-09T06:02:30.297Z,96011.89
2018-09-09T06:04:58.717Z,96012.38
2018-09-09T06:07:27.121Z,96013.32
2018-09-09T06:09:55.552Z,96013.85
2018-09-09T06:12:23.959Z,96019.87
2018-09-09T06:14:52.365Z,96013.16
2018-09-09T06:17:20.758Z,96008.93
2018-09-09T06:19:49.181Z,96007.45
2018-09-09T06:22:17.559Z,96004.19
2018-09-09T06:24:45.963Z,95997.77
2018-09-09T06:27:14.350Z,95999.65
2018-09-09T06:29:42.845Z,95997.75
2018-09-09T06:32:11.224Z,95995.45
2018-09-09T06:34:39.598Z,95991.50
2018-09-09T06:37:08.009Z,95987.03
2018-09-09T06:39:36.389Z,95984.45
2018-09-09T06:42:04.818Z,95986.76
2018-09-09T06:44:33.213Z,95990.61
2018-09-09T06:47:01.910Z,95987.35
2018-09-09T06:49:30.593Z,95986.44
2018-09-09T06:51:59.005Z,95984.84
2018-09-09T06:54:27.428Z,95990.93
2018-09-09T06:56:55.845Z,95986.75
2018-09-09T06:59:24.225Z,95986.73
2018-09-09T07:01:53.029Z,95985.69
2018-09-09T07:04:21.414Z,95986.30
2018-09-09T07:06:49.821Z,95990.04
2018-09-09T07:09:18.220Z,95994.54
2018-09-09T07:11:46.787Z,95993.23
2018-09-09T07:14:15.070Z,95995.02
2018-09-09T07:16:43.484Z,95997.44
2018-09-09T07:19:11.931Z,96003.77
2018-09-09T07:21:40.342Z,96008.94
2018-09-09T07:24:08.736Z,96005.98
2018-09-09T07:26:37.124Z,96005.88
2018-09-09T07:29:06.753Z,96013.06
2018-09-09T07:31:35.148Z,96015.77
2018-09-09T07:34:04.425Z,96017.15
2018-09-09T07:36:32.768Z,96010.27
2018-09-09T07:39:01.202Z,96011.41
2018-09-09T07:41:29.613Z,96012.72
2018-09-09T07:43:58.023Z,96011.41
2018-09-09T07:46:26.447Z,96018.63
2018-09-09T07:48:54.853Z,96016.67
2018-09-09T07:51:23.217Z,96025.06
2018-09-09T07:53:51.783Z,96022.74
2018-09-09T07:56:20.226Z,96026.81
2018-09-09T07:58:48.642Z,96026.02
2018-09-09T08:01:17.055Z,96030.57
2018-09-09T08:03:45.462Z,96030.05
2018-09-09T08:06:13.840Z,96032.17
2018-09-09T08:08:42.246Z,96039.60
2018-09-09T08:11:10.605Z,96037.37
2018-09-09T08:13:39.682Z,96035.88
2018-09-09T08:16:08.062Z,96038.47
2018-09-09T08:18:36.491Z,96039.30
2018-09-09T08:21:04.995Z,96037.00
2018-09-09T08:23:33.379Z,96038.50
2018-09-09T08:26:02.050Z,96032.85
2018-09-09T08:28:30.548Z,96029.30
2018-09-09T08:30:58.953Z,96033.69
2018-09-09T08:33:27.329Z,96032.88
2018-09-09T08:35:56.441Z,96027.70
2018-09-09T08:38:24.841Z,96030.64
2018-09-09T08:40:53.258Z,96030.07
2018-09-09T08:43:21.636Z,96030.29
2018-09-09T08:45:50.078Z,96027.84
2018-09-09T08:48:18.466Z,96026.28
2018-09-09T08:50:46.869Z,96036.56
2018-09-09T08:53:15.237Z,96029.51
2018-09-09T08:55:43.661Z,96038.25
2018-09-09T08:58:12.077Z,96031.23
2018-09-09T09:00:40.485Z,96030.34
2018-09-09T09:03:08.893Z,96030.05
2018-09-09T09:05:37.287Z,96029.45
2018-09-09T09:08:05.717Z,96029.83
2018-09-09T09:10:34.167Z,96034.94
2018-09-09T09:13:02.741Z,96030.53
2018-09-09T09:15:31.136Z,96028.31
2018-09-09T09:17:59.525Z,96032.38
2018-09-09T09:20:27.921Z,96029.67
2018-09-09T09:22:56.319Z,96031.69
2018-09-09T09:25:24.697Z,96032.50
2018-09-09T09:27:53.092Z,96034.00
2018-09-09T09:30:21.473Z,96034.00
2018-09-09T09:32:49.869Z,96030.13
2018-09-09T09:35:18.236Z,96030.73
2018-09-09T09:37:46.643Z,96028.48
2018-09-09T09:40:15.026Z,96026.45
2018-09-09T09:42:43.432Z,96024.61
2018-09-09T09:45:11.809Z,96029.91
2018-09-09T09:47:40.217Z,96024.83
2018-09-09T09:50:08.612Z,96022.84
2018-09-09T09:52:37.019Z,96018.33
2018-09-09T09:55:05.844Z,96014.04
2018-09-09T09:57:34.213Z,96007.62
2018-09-09T10:00:03.006Z,96014.61
2018-09-09T10:02:32.001Z,96007.14
2018-09-09T10:05:00.392Z,96007.22
2018-09-09T10:07:29.669Z,96004.33
2018-09-09T10:09:58.062Z,96007.22
2018-09-09T10:12:26.437Z,96010.08
2018-09-09T10:14:54.880Z,96008.98
2018-09-09T10:17:23.344Z,96006.95
2018-09-09T10:19:51.825Z,96011.58
2018-09-09T10:22:20.226Z,96011.08
2018-09-09T10:24:48.637Z,96015.25
2018-09-09T10:27:17.026Z,96012.37
2018-09-09T10:29:45.429Z,96004.88
2018-09-09T10:32:13.833Z,96007.67
2018-09-09T10:34:42.238Z,95999.72
2018-09-09T10:37:10.629Z,96004.06
2018-09-09T10:39:39.362Z,96006.92
2018-09-09T10:42:07.777Z,95999.50
2018-09-09T10:44:36.192Z,96001.95
2018-09-09T10:47:04.600Z,96007.88
2018-09-09T10:49:33.035Z,96002.21
2018-09-09T10:52:01.933Z,96005.03
2018-09-09T10:54:30.361Z,96005.03
2018-09-09T10:56:58.733Z,96001.45
2018-09-09T10:59:27.128Z,96006.75
2018-09-09T11:01:55.581Z,96005.23
2018-09-09T11:04:23.989Z,96008.15
2018-09-09T11:06:53.661Z,95997.59
2018-09-09T11:09:22.009Z,96003.80
2018-09-09T11:11:50.434Z,95993.97
2018-09-09T11:14:18.829Z,95997.09
2018-09-09T11:16:47.252Z,95996.14
2018-09-09T11:19:15.658Z,95990.55
2018-09-09T11:21:44.130Z,95991.84
2018-09-09T11:24:12.595Z,95993.11
2018-09-09T11:26:41.044Z,95991.03
2018-09-09T11:29:09.446Z,95991.02
2018-09-09T11:31:37.860Z,95983.49
2018-09-09T11:34:06.265Z,95982.66
2018-09-09T11:36:34.733Z,95977.37
2018-09-09T11:39:04.294Z,95978.84
2018-09-09T11:41:32.734Z,95978.77
2018-09-09T11:44:01.141Z,95975.92
2018-09-09T11:46:29.613Z,95970.81
2018-09-09T11:48:58.025Z,95975.41
2018-09-09T11:51:26.411Z,95974.15
2018-09-09T11:53:55.573Z,95969.30
2018-09-09T11:56:24.013Z,95973.64
2018-09-09T11:58:52.564Z,95975.72
2018-09-09T12:01:21.049Z,95976.30
2018-09-09T12:03:49.514Z,95972.62
2018-09-09T12:06:17.970Z,95974.45
2018-09-09T12:08:46.397Z,95976.28
2018-09-09T12:11:14.781Z,95970.30
2018-09-09T12:13:43.232Z,95977.98
2018-09-09T12:16:11.705Z,95971.27
2018-09-09T12:18:40.184Z,95974.13
2018-09-09T12:21:08.614Z,95967.56
2018-09-09T12:23:37.111Z,95974.00
2018-09-09T12:26:05.473Z,95972.30
2018-09-09T12:28:33.924Z,95971.05
2018-09-09T12:31:02.933Z,95968.69
2018-09-09T12:33:31.373Z,95972.17
2018-09-09T12:35:59.805Z,95980.84
2018-09-09T12:38:28.220Z,95979.89
2018-09-09T12:40:56.597Z,95976.19
2018-09-09T12:43:30.409Z,95966.31
2018-09-09T12:46:04.045Z,95972.32
2018-09-09T12:48:44.593Z,95973.48
2018-09-09T12:51:12.998Z,95973.62
2018-09-09T12:53:41.432Z,95969.47
2018-09-09T12:56:09.838Z,95966.61
2018-09-09T12:58:38.250Z,95962.83
2018-09-09T13:01:06.694Z,95960.05
2018-09-09T13:03:35.129Z,95960.91
2018-09-09T13:06:03.550Z,95968.87
2018-09-09T13:08:32.501Z,95965.89
2018-09-09T13:11:01.190Z,95971.62
2018-09-09T13:13:29.578Z,95966.94
2018-09-09T13:15:58.020Z,95960.56
2018-09-09T13:18:26.413Z,95969.98
2018-09-09T13:20:54.861Z,95971.72
2018-09-09T13:23:23.247Z,95971.33
2018-09-09T13:25:51.676Z,95960.64
2018-09-09T13:28:20.054Z,95965.30
2018-09-09T13:30:48.485Z,95962.41
2018-09-09T13:33:16.880Z,95970.97
2018-09-09T13:35:45.320Z,95960.78
2018-09-09T13:38:13.803Z,95963.47
2018-09-09T13:40:42.277Z,95961.70
2018-09-09T13:43:10.701Z,95961.64
2018-09-09T13:45:39.155Z,95959.55
2018-09-09T13:48:07.626Z,95956.70
2018-09-09T13:50:36.065Z,95951.46
2018-09-09T13:53:04.490Z,95959.03
2018-09-09T13:55:32.931Z,95960.27
2018-09-09T13:58:01.554Z,95951.48
2018-09-09T14:00:29.977Z,95939.20
2018-09-09T14:02:58.440Z,95943.94
2018-09-09T14:05:26.896Z,95947.55
2018-09-09T14:07:55.361Z,95938.45
2018-09-09T14:10:23.807Z,95935.77
2018-09-09T14:12:52.277Z,95937.86
2018-09-09T14:15:20.740Z,95937.75
2018-09-09T14:17:49.119Z,95935.73
2018-09-09T14:20:17.533Z,95939.23
2018-09-09T14:22:46.066Z,95945.28
2018-09-09T14:25:14.421Z,95944.03
2018-09-09T14:27:42.887Z,95944.68
2018-09-09T14:30:11.293Z,95946.94
2018-09-09T14:32:39.734Z,95953.28
2018-09-09T14:35:08.162Z,95947.06
2018-09-09T14:37:36.585Z,95949.52
2018-09-09T14:40:05.109Z,95951.77
2018-09-09T14:42:33.572Z,95950.48
2018-09-09T14:45:01.995Z,95955.97
2018-09-09T14:47:30.451Z,95947.47
2018-09-09T14:49:58.885Z,95942.19
2018-09-09T14:52:27.298Z,95940.73
2018-09-09T14:54:55.749Z,95944.39
2018-09-09T14:57:24.176Z,95932.42
2018-09-09T14:59:52.681Z,95939.86
2018-09-09T15:02:21.242Z,95936.30
2018-09-09T15:04:49.859Z,95936.25
2018-09-09T15:07:18.263Z,95934.80
2018-09-09T15:09:46.745Z,95940.08
2018-09-09T15:12:15.160Z,95934.22
2018-09-09T15:14:43.593Z,95936.77
2018-09-09T15:17:11.985Z,95934.75
2018-09-09T15:19:40.437Z,95928.08
2018-09-09T15:22:08.837Z,95929.64
2018-09-09T15:24:37.267Z,95930.83
2018-09-09T15:27:06.052Z,95921.41
2018-09-09T15:29:34.491Z,95925.11
2018-09-09T15:32:04.121Z,95922.05
2018-09-09T15:34:32.557Z,95921.08
2018-09-09T15:37:00.989Z,95930.14
2018-09-09T15:39:29.754Z,95925.30
2018-09-09T15:41:58.204Z,95925.58
2018-09-09T15:44:26.641Z,95931.87
2018-09-09T15:46:55.081Z,95928.53
2018-09-09T15:49:23.500Z,95925.67
2018-09-09T15:51:51.935Z,95926.28
2018-09-09T15:54:20.333Z,95934.44
2018-09-09T15:56:48.792Z,95931.70
2018-09-09T15:59:17.206Z,95933.31
2018-09-09T16:01:45.766Z,95939.45
2018-09-09T16:04:14.158Z,95935.73
2018-09-09T16:06:42.592Z,95933.41
2018-09-09T16:09:11.647Z,95935.25
2018-09-09T16:11:40.158Z,95934.02
2018-09-09T16:14:08.846Z,95939.69
2018-09-09T16:16:37.369Z,95938.77
2018-09-09T16:19:06.565Z,95936.67
2018-09-09T16:21:35.020Z,95942.88
2018-09-09T16:24:03.478Z,95948.77
2018-09-09T16:26:31.866Z,95941.30
2018-09-09T16:29:00.298Z,95951.81
2018-09-09T16:31:28.698Z,95946.58
2018-09-09T16:33:57.121Z,95940.75
2018-09-09T16:36:25.585Z,95951.14
2018-09-09T16:38:54.049Z,95954.44
2018-09-09T16:41:22.457Z,95958.72
2018-09-09T16:43:51.145Z,95959.50
2018-09-09T16:46:19.543Z,95958.70
2018-09-09T16:48:47.967Z,95960.15
2018-09-09T16:51:16.434Z,95960.09
2018-09-09T16:53:44.885Z,95958.41
2018-09-09T16:56:13.280Z,95956.56
2018-09-09T16:58:41.706Z,95957.52
2018-09-09T17:01:10.164Z,95961.23
2018-09-09T17:03:38.585Z,95958.93
2018-09-09T17:06:07.133Z,95961.28
2018-09-09T17:08:36.906Z,95962.58
2018-09-09T17:11:05.380Z,95961.02
2018-09-09T17:13:34.100Z,95958.89
2018-09-09T17:16:02.894Z,95955.49
2018-09-09T17:18:31.281Z,95962.55
2018-09-09T17:20:59.714Z,95959.53
2018-09-09T17:23:28.514Z,95956.89
2018-09-09T17:25:56.925Z,95964.56
2018-09-09T17:28:25.337Z,95956.81
2018-09-09T17:30:53.790Z,95963.30
2018-09-09T17:33:22.197Z,95962.77
2018-09-09T17:35:50.606Z,95965.66
2018-09-09T17:38:19.015Z,95966.03
2018-09-09T17:40:47.469Z,95968.89
2018-09-09T17:43:15.862Z,95971.58
2018-09-09T17:45:44.289Z,95967.95
2018-09-09T17:48:12.732Z,95970.63
2018-09-09T17:50:41.157Z,95969.91
2018-09-09T17:53:09.541Z,95974.53
2018-09-09T17:55:38.074Z,95983.19
2018-09-09T17:58:06.498Z,95982.78
2018-09-09T18:00:36.290Z,95980.39
2018-09-09T18:03:04.758Z,95982.84
2018-09-09T18:05:33.207Z,95975.28
2018-09-09T18:08:01.613Z,95986.14
2018-09-09T18:10:29.985Z,95990.10
2018-09-09T18:12:58.510Z,95988.11
2018-09-09T18:15:26.897Z,95990.94
2018-09-09T18:17:55.308Z,95996.29
2018-09-09T18:20:23.774Z,95992.58
2018-09-09T18:22:52.254Z,95995.29
2018-09-09T18:25:20.631Z,95993.73
2018-09-09T18:27:49.111Z,95997.47
2018-09-09T18:30:17.541Z,96000.23
2018-09-09T18:32:45.977Z,96006.23
2018-09-09T18:35:14.407Z,96007.41
2018-09-09T18:37:42.837Z,96010.92
2018-09-09T18:40:11.280Z,96007.48
2018-09-09T18:42:39.721Z,96010.75
2018-09-09T18:45:09.053Z,96018.59
2018-09-09T18:47:37.633Z,96018.13
2018-09-09T18:50:06.146Z,96020.70
2018-09-09T18:52:34.646Z,96017.38
2018-09-09T18:55:03.052Z,96015.98
2018-09-09T18:57:31.509Z,96019.77
2018-09-09T18:59:59.975Z,96016.02
2018-09-09T19:02:28.363Z,96019.64
2018-09-09T19:04:56.805Z,96014.36
2018-09-09T19:07:25.225Z,96021.50
2018-09-09T19:09:53.689Z,96018.37
2018-09-09T19:12:24.041Z,96022.25
2018-09-09T19:14:53.106Z,96017.83
2018-09-09T19:17:21.800Z,96020.09
2018-09-09T19:19:50.298Z,96021.57
2018-09-09T19:22:19.209Z,96020.89
2018-09-09T19:24:48.210Z,96021.61
2018-09-09T19:27:16.637Z,96023.11
2018-09-09T19:29:45.069Z,96021.64
2018-09-09T19:32:13.481Z,96020.01
2018-09-09T19:34:41.915Z,96019.55
2018-09-09T19:37:12.525Z,96022.34
2018-09-09T19:39:41.286Z,96018.88
2018-09-09T19:42:09.695Z,96024.03
2018-09-09T19:44:38.225Z,96024.53
2018-09-09T19:47:06.693Z,96026.03
2018-09-09T19:49:35.349Z,96030.34
2018-09-09T19:52:04.022Z,96028.23
2018-09-09T19:54:32.499Z,96023.66
2018-09-09T19:57:01.127Z,96025.47
2018-09-09T19:59:30.202Z,96021.69
2018-09-09T20:01:58.843Z,96018.73
2018-09-09T20:04:27.320Z,96014.92
2018-09-09T20:06:55.789Z,96025.52
2018-09-09T20:09:24.234Z,96032.25
2018-09-09T20:11:52.681Z,96032.14
2018-09-09T20:14:21.134Z,96034.30
2018-09-09T20:16:50.588Z,96030.83
2018-09-09T20:19:19.026Z,96034.95
2018-09-09T20:21:47.509Z,96036.28
2018-09-09T20:24:15.933Z,96032.82
2018-09-09T20:26:44.394Z,96036.36
2018-09-09T20:29:12.781Z,96039.47
2018-09-09T20:31:41.210Z,96037.16
2018-09-09T20:34:09.664Z,96036.50
2018-09-09T20:36:38.116Z,96041.92
2018-09-09T20:39:08.845Z,96042.96
2018-09-09T20:41:37.321Z,96040.99
2018-09-09T20:44:06.361Z,96038.19
2018-09-09T20:46:34.847Z,96036.07
2018-09-09T20:49:03.726Z,96038.71
2018-09-09T20:51:32.121Z,96038.71
2018-09-09T20:54:00.553Z,96035.92
2018-09-09T20:56:28.998Z,96039.12
2018-09-09T20:58:57.434Z,96037.29
2018-09-09T21:01:25.870Z,96039.41
2018-09-09T21:03:54.341Z,96041.55
2018-09-09T21:06:22.753Z,96043.21
2018-09-09T21:08:51.199Z,96040.12
2018-09-09T21:11:19.624Z,96043.40
2018-09-09T21:13:48.191Z,96039.27
2018-09-09T21:16:16.617Z,96039.62
2018-09-09T21:18:45.057Z,96042.09
2018-09-09T21:21:13.493Z,96040.58
2018-09-09T21:23:41.937Z,96036.81
2018-09-09T21:26:10.397Z,96039.78
2018-09-09T21:28:38.807Z,96044.23
2018-09-09T21:31:07.223Z,96040.28
2018-09-09T21:33:35.671Z,96037.77
2018-09-09T21:36:04.069Z,96040.74
2018-09-09T21:38:32.501Z,96033.81
2018-09-09T21:41:02.092Z,96033.02
2018-09-09T21:43:30.579Z,96031.36
2018-09-09T21:45:59.000Z,96029.55
2018-09-09T21:48:27.477Z,96032.50
2018-09-09T21:50:55.895Z,96029.03
2018-09-09T21:53:24.308Z,96041.42
2018-09-09T21:55:52.910Z,96030.21
2018-09-09T21:58:21.541Z,96031.86
2018-09-09T22:00:55.197Z,96028.05
2018-09-09T22:03:23.673Z,96033.66
2018-09-09T22:05:52.166Z,96030.02
2018-09-09T22:08:20.612Z,96033.97
2018-09-09T22:10:49.096Z,96034.91
2018-09-09T22:13:17.525Z,96038.72
2018-09-09T22:15:46.474Z,96038.41
2018-09-09T22:18:14.971Z,96039.23
2018-09-09T22:20:43.441Z,96036.73
2018-09-09T22:23:11.929Z,96043.50
2018-09-09T22:25:40.394Z,96038.58
2018-09-09T22:28:09.093Z,96042.84
2018-09-09T22:30:37.666Z,96044.34
2018-09-09T22:33:06.391Z,96046.97
2018-09-09T22:35:34.815Z,96046.93
2018-09-09T22:38:03.458Z,96041.70
2018-09-09T22:40:31.899Z,96049.61
2018-09-09T22:43:00.349Z,96049.88
2018-09-09T22:45:28.776Z,96052.52
2018-09-09T22:47:57.279Z,96049.39
2018-09-09T22:50:25.712Z,96053.52
2018-09-09T22:52:54.265Z,96049.56
2018-09-09T22:55:22.726Z,96051.37
2018-09-09T22:57:51.160Z,96048.25
2018-09-09T23:00:19.583Z,96056.41
2018-09-09T23:02:48.074Z,96062.77
2018-09-09T23:05:16.512Z,96055.95
2018-09-09T23:07:44.993Z,96063.81
2018-09-09T23:10:13.440Z,96064.77
2018-09-09T23:12:41.934Z,96057.95
2018-09-09T23:15:10.366Z,96053.67
2018-09-09T23:17:38.808Z,96059.36
2018-09-09T23:20:07.268Z,96061.36
2018-09-09T23:22:35.725Z,96061.87
2018-09-09T23:25:04.237Z,96058.24
2018-09-09T23:27:32.731Z,96059.41
2018-09-09T23:30:01.145Z,96062.51
2018-09-09T23:32:29.621Z,96059.09
2018-09-09T23:34:58.093Z,96058.44
2018-09-09T23:37:26.529Z,96059.05
2018-09-09T23:39:54.969Z,96053.78
2018-09-09T23:42:23.365Z,96055.41
2018-09-09T23:44:52.516Z,96055.73
2018-09-09T23:47:20.957Z,96052.33
2018-09-09T23:49:49.409Z,96052.08
2018-09-09T23:52:17.872Z,96046.87
2018-09-09T23:54:46.472Z,96043.41
2018-09-09T23:57:14.901Z,96043.41
2018-09-09T23:59:43.373Z,96040.94
